Airfield :
LOGIN :

Register | Disclaimer

   EN    FR    IT 

 










Legend :    VFR   Marginal VFR   IFR   Intensive IFR   Very Intensive IFR
Visi :
Ceiling :
>= 8 km
>= 3000ft
5 to 8 km
1000 to 3000 ft
1500m to 5 km
500 to 1000 ft
800 to 1500m
200 to 500 ft
< 800m
< 200 ft
Symbols :   Thunderstorms  Fog  Heavy snow  Heavy precipitations  Wind > 20 kt
SIGMETs :     Misc.  Thunderstorms  Icing  Turbulence  Mountain Waves  Volcanic Ashes







- Airport Elevation : 616 ft
- IATA code : PUF
- Download approach charts


LFBP - Pau

CURRENT METAR :
  • 200700Z AUTO 21006KT 9999 SCT024 BKN030 OVC042 11/10 Q1015 TEMPO BKN015 BKN020TCU

EXPIRED METARs :
  • 200630Z AUTO 23005KT 9999 BKN026/// BKN032/// BKN041/// ///TCU 11/10 Q1015 TEMPO BKN010 OVC014
  • 200600Z AUTO 23005KT 9999 -RA BKN017/// OVC027/// ///TCU 10/09 Q1015 TEMPO BKN010 OVC014
  • 200530Z AUTO VRB03KT 9999 BKN017/// BKN022/// OVC033/// ///TCU 10/10 Q1015 TEMPO BKN010 OVC014
  • 200500Z AUTO 22003KT 9999 BKN019/// OVC028/// ///TCU 10/09 Q1014 TEMPO BKN008 OVC014
  • 200430Z AUTO 27005KT 240V300 9000 -RA BKN017 BKN024 OVC030 10/09 Q1014 TEMPO BKN008 OVC014
  • 200400Z AUTO 24005KT 9999 FEW021 BKN031 BKN038 11/09 Q1014 TEMPO BKN008 OVC014

TAF TAF LFBP
Valid from the 20 at 06:00 until the 21 at 06:00 UTC


200500Z 2006/2106 24005KT 9999 BKN025
TEMPO 2006/2009 BKN010 OVC014
PROB40
TEMPO 2006/2011 -RA BKN015 BKN020TCU
BECMG 2012/2014 SCT030
BECMG 2023/2101 BKN030
PROB30
TEMPO 2100/2106 3000 BR BKN010
No reported NOTAMs for that airfield.



MET'MAP, your aeronautical weather chart ! - Copyright ORBIFLY December 2007 - Disclaimer

ORBIFLY MET'MAP TEAM :

Programming & Development : Alexandra Zaïnal
Concept & Development : Baudouin d'Aumeries
Co-Development & Prog : Marc-Olivier Méhu
Technical & hardware support : Manuel Goepfert

Contact : metmap@orbifly.com




SOURCES & CREDITS :

   NOAA